sensor_id;sensor_type;location;lat;lon;timestamp;temperature;humidity
18694;DHT22;9477;51.414;10.362;2022-07-04T00:00:20;21.30;64.30
18694;DHT22;9477;51.414;10.362;2022-07-04T00:02:22;21.40;64.30
18694;DHT22;9477;51.414;10.362;2022-07-04T00:04:25;21.30;64.40
18694;DHT22;9477;51.414;10.362;2022-07-04T00:06:28;21.40;64.20
18694;DHT22;9477;51.414;10.362;2022-07-04T00:08:31;21.30;64.30
18694;DHT22;9477;51.414;10.362;2022-07-04T00:10:34;21.00;65.10
18694;DHT22;9477;51.414;10.362;2022-07-04T00:12:38;21.00;65.40
18694;DHT22;9477;51.414;10.362;2022-07-04T00:14:41;20.80;65.60
18694;DHT22;9477;51.414;10.362;2022-07-04T00:16:44;20.80;66.00
18694;DHT22;9477;51.414;10.362;2022-07-04T00:18:47;20.80;65.80
18694;DHT22;9477;51.414;10.362;2022-07-04T00:20:50;20.90;65.80
18694;DHT22;9477;51.414;10.362;2022-07-04T00:22:55;20.90;65.90
18694;DHT22;9477;51.414;10.362;2022-07-04T00:24:58;20.90;65.90
18694;DHT22;9477;51.414;10.362;2022-07-04T00:27:00;21.10;65.70
18694;DHT22;9477;51.414;10.362;2022-07-04T00:29:05;21.00;65.70
18694;DHT22;9477;51.414;10.362;2022-07-04T00:31:07;20.90;65.80
18694;DHT22;9477;51.414;10.362;2022-07-04T00:33:11;20.90;66.10
18694;DHT22;9477;51.414;10.362;2022-07-04T00:35:14;21.00;65.90
18694;DHT22;9477;51.414;10.362;2022-07-04T00:37:17;21.00;65.70
18694;DHT22;9477;51.414;10.362;2022-07-04T00:39:20;20.90;65.90
18694;DHT22;9477;51.414;10.362;2022-07-04T00:41:23;20.80;66.20
18694;DHT22;9477;51.414;10.362;2022-07-04T00:43:28;20.70;66.30
18694;DHT22;9477;51.414;10.362;2022-07-04T00:45:32;20.70;67.50
18694;DHT22;9477;51.414;10.362;2022-07-04T00:47:35;20.50;67.20
18694;DHT22;9477;51.414;10.362;2022-07-04T00:49:38;20.30;67.50
18694;DHT22;9477;51.414;10.362;2022-07-04T00:51:42;20.40;67.60
18694;DHT22;9477;51.414;10.362;2022-07-04T00:53:45;20.60;67.40
18694;DHT22;9477;51.414;10.362;2022-07-04T00:55:49;20.50;67.30
18694;DHT22;9477;51.414;10.362;2022-07-04T00:57:52;20.60;67.10
18694;DHT22;9477;51.414;10.362;2022-07-04T00:59:55;20.50;67.40
18694;DHT22;9477;51.414;10.362;2022-07-04T01:01:59;20.40;67.40
18694;DHT22;9477;51.414;10.362;2022-07-04T01:04:03;20.30;67.40
18694;DHT22;9477;51.414;10.362;2022-07-04T01:06:07;20.40;67.40
18694;DHT22;9477;51.414;10.362;2022-07-04T01:08:11;20.60;67.20
18694;DHT22;9477;51.414;10.362;2022-07-04T01:10:14;20.40;67.40
18694;DHT22;9477;51.414;10.362;2022-07-04T01:12:25;20.20;67.60
18694;DHT22;9477;51.414;10.362;2022-07-04T01:14:28;20.30;67.50
18694;DHT22;9477;51.414;10.362;2022-07-04T01:16:31;20.20;67.70
18694;DHT22;9477;51.414;10.362;2022-07-04T01:18:35;20.20;67.70
18694;DHT22;9477;51.414;10.362;2022-07-04T01:20:40;20.30;67.40
18694;DHT22;9477;51.414;10.362;2022-07-04T01:22:43;20.40;67.10
18694;DHT22;9477;51.414;10.362;2022-07-04T01:24:48;20.50;66.90
18694;DHT22;9477;51.414;10.362;2022-07-04T01:26:51;20.50;66.90
18694;DHT22;9477;51.414;10.362;2022-07-04T01:28:54;20.40;66.80
18694;DHT22;9477;51.414;10.362;2022-07-04T01:30:57;20.20;66.90
18694;DHT22;9477;51.414;10.362;2022-07-04T01:33:00;20.30;67.00
18694;DHT22;9477;51.414;10.362;2022-07-04T01:35:04;20.40;66.60
18694;DHT22;9477;51.414;10.362;2022-07-04T01:37:07;20.30;66.70
18694;DHT22;9477;51.414;10.362;2022-07-04T01:39:09;20.40;66.30
18694;DHT22;9477;51.414;10.362;2022-07-04T01:41:12;20.20;66.30
18694;DHT22;9477;51.414;10.362;2022-07-04T01:43:15;20.40;66.20
18694;DHT22;9477;51.414;10.362;2022-07-04T01:45:18;20.50;66.00
18694;DHT22;9477;51.414;10.362;2022-07-04T01:47:21;20.60;65.50
18694;DHT22;9477;51.414;10.362;2022-07-04T01:49:23;20.60;65.20
18694;DHT22;9477;51.414;10.362;2022-07-04T01:51:26;20.60;65.00
18694;DHT22;9477;51.414;10.362;2022-07-04T01:53:35;20.70;64.60
18694;DHT22;9477;51.414;10.362;2022-07-04T01:55:40;20.80;64.20
18694;DHT22;9477;51.414;10.362;2022-07-04T01:57:43;20.80;64.00
18694;DHT22;9477;51.414;10.362;2022-07-04T01:59:47;20.80;64.00
18694;DHT22;9477;51.414;10.362;2022-07-04T02:02:07;20.80;63.80
18694;DHT22;9477;51.414;10.362;2022-07-04T02:04:10;20.90;63.60
18694;DHT22;9477;51.414;10.362;2022-07-04T02:06:13;20.90;63.60
18694;DHT22;9477;51.414;10.362;2022-07-04T02:08:16;20.90;63.50
18694;DHT22;9477;51.414;10.362;2022-07-04T02:10:22;20.90;63.50
18694;DHT22;9477;51.414;10.362;2022-07-04T02:12:25;20.80;63.60
18694;DHT22;9477;51.414;10.362;2022-07-04T02:14:48;20.80;63.60
18694;DHT22;9477;51.414;10.362;2022-07-04T02:16:52;20.80;63.60
18694;DHT22;9477;51.414;10.362;2022-07-04T02:18:55;20.60;64.10
18694;DHT22;9477;51.414;10.362;2022-07-04T02:20:58;20.60;63.90
18694;DHT22;9477;51.414;10.362;2022-07-04T02:23:03;20.60;63.90
18694;DHT22;9477;51.414;10.362;2022-07-04T02:25:07;20.60;63.70
18694;DHT22;9477;51.414;10.362;2022-07-04T02:27:11;20.60;63.90
18694;DHT22;9477;51.414;10.362;2022-07-04T02:29:14;20.60;63.90
18694;DHT22;9477;51.414;10.362;2022-07-04T02:31:17;20.60;63.70
18694;DHT22;9477;51.414;10.362;2022-07-04T02:33:23;20.50;64.30
18694;DHT22;9477;51.414;10.362;2022-07-04T02:35:25;20.50;63.80
18694;DHT22;9477;51.414;10.362;2022-07-04T02:37:29;20.50;63.70
18694;DHT22;9477;51.414;10.362;2022-07-04T02:39:32;20.50;63.70
18694;DHT22;9477;51.414;10.362;2022-07-04T02:41:35;20.50;63.70
18694;DHT22;9477;51.414;10.362;2022-07-04T02:43:39;20.40;63.80
18694;DHT22;9477;51.414;10.362;2022-07-04T02:45:44;20.40;63.90
18694;DHT22;9477;51.414;10.362;2022-07-04T02:47:47;20.30;63.70
18694;DHT22;9477;51.414;10.362;2022-07-04T02:49:50;20.30;63.90
18694;DHT22;9477;51.414;10.362;2022-07-04T02:51:56;20.30;63.90
18694;DHT22;9477;51.414;10.362;2022-07-04T02:53:59;20.30;63.80
18694;DHT22;9477;51.414;10.362;2022-07-04T02:56:02;20.20;63.70
18694;DHT22;9477;51.414;10.362;2022-07-04T02:58:06;20.30;63.70
18694;DHT22;9477;51.414;10.362;2022-07-04T03:00:12;20.30;63.60
18694;DHT22;9477;51.414;10.362;2022-07-04T03:02:15;20.20;63.60
18694;DHT22;9477;51.414;10.362;2022-07-04T03:04:18;20.10;63.90
18694;DHT22;9477;51.414;10.362;2022-07-04T03:06:21;20.10;63.70
18694;DHT22;9477;51.414;10.362;2022-07-04T03:08:24;20.10;63.70
18694;DHT22;9477;51.414;10.362;2022-07-04T03:10:27;20.20;63.60
18694;DHT22;9477;51.414;10.362;2022-07-04T03:12:30;20.20;63.30
18694;DHT22;9477;51.414;10.362;2022-07-04T03:14:35;20.20;63.30
18694;DHT22;9477;51.414;10.362;2022-07-04T03:16:39;20.00;63.20
18694;DHT22;9477;51.414;10.362;2022-07-04T03:18:42;20.10;63.20
18694;DHT22;9477;51.414;10.362;2022-07-04T03:20:47;20.10;63.10
18694;DHT22;9477;51.414;10.362;2022-07-04T03:22:50;20.10;63.00
18694;DHT22;9477;51.414;10.362;2022-07-04T03:24:53;20.00;62.80
18694;DHT22;9477;51.414;10.362;2022-07-04T03:26:56;20.00;62.70
18694;DHT22;9477;51.414;10.362;2022-07-04T03:29:00;20.00;62.60
18694;DHT22;9477;51.414;10.362;2022-07-04T03:31:03;20.00;62.70
18694;DHT22;9477;51.414;10.362;2022-07-04T03:33:08;19.90;62.70
18694;DHT22;9477;51.414;10.362;2022-07-04T03:35:11;19.80;63.20
18694;DHT22;9477;51.414;10.362;2022-07-04T03:37:13;19.80;63.50
18694;DHT22;9477;51.414;10.362;2022-07-04T03:39:16;19.70;63.60
18694;DHT22;9477;51.414;10.362;2022-07-04T03:41:19;19.70;63.70
18694;DHT22;9477;51.414;10.362;2022-07-04T03:43:22;19.70;63.50
18694;DHT22;9477;51.414;10.362;2022-07-04T03:45:24;19.70;63.40
18694;DHT22;9477;51.414;10.362;2022-07-04T03:47:27;19.70;63.20
18694;DHT22;9477;51.414;10.362;2022-07-04T03:49:31;19.80;63.30
18694;DHT22;9477;51.414;10.362;2022-07-04T03:51:34;19.80;63.10
18694;DHT22;9477;51.414;10.362;2022-07-04T03:53:37;19.90;63.10
18694;DHT22;9477;51.414;10.362;2022-07-04T03:55:40;19.90;63.00
18694;DHT22;9477;51.414;10.362;2022-07-04T03:57:43;19.90;62.90
18694;DHT22;9477;51.414;10.362;2022-07-04T03:59:46;19.90;62.90
18694;DHT22;9477;51.414;10.362;2022-07-04T04:01:49;19.90;62.90
18694;DHT22;9477;51.414;10.362;2022-07-04T04:03:52;20.00;63.00
18694;DHT22;9477;51.414;10.362;2022-07-04T04:06:13;20.00;62.90
18694;DHT22;9477;51.414;10.362;2022-07-04T04:08:16;20.00;62.90
18694;DHT22;9477;51.414;10.362;2022-07-04T04:10:19;20.00;62.80
18694;DHT22;9477;51.414;10.362;2022-07-04T04:12:22;20.10;62.80
18694;DHT22;9477;51.414;10.362;2022-07-04T04:14:25;20.10;62.70
18694;DHT22;9477;51.414;10.362;2022-07-04T04:16:29;20.20;63.00
18694;DHT22;9477;51.414;10.362;2022-07-04T04:18:32;20.20;62.90
18694;DHT22;9477;51.414;10.362;2022-07-04T04:20:34;20.20;63.00
18694;DHT22;9477;51.414;10.362;2022-07-04T04:22:38;20.30;63.10
18694;DHT22;9477;51.414;10.362;2022-07-04T04:24:41;20.30;63.00
18694;DHT22;9477;51.414;10.362;2022-07-04T04:26:45;20.40;63.20
18694;DHT22;9477;51.414;10.362;2022-07-04T04:28:48;20.40;63.20
18694;DHT22;9477;51.414;10.362;2022-07-04T04:30:51;20.50;63.20
18694;DHT22;9477;51.414;10.362;2022-07-04T04:32:53;20.50;63.00
18694;DHT22;9477;51.414;10.362;2022-07-04T04:34:57;20.60;63.10
18694;DHT22;9477;51.414;10.362;2022-07-04T04:37:01;20.50;63.90
18694;DHT22;9477;51.414;10.362;2022-07-04T04:39:06;20.50;63.00
18694;DHT22;9477;51.414;10.362;2022-07-04T04:41:08;20.50;63.20
18694;DHT22;9477;51.414;10.362;2022-07-04T04:43:11;20.40;63.30
18694;DHT22;9477;51.414;10.362;2022-07-04T04:45:14;20.40;64.10
18694;DHT22;9477;51.414;10.362;2022-07-04T04:47:17;20.40;63.40
18694;DHT22;9477;51.414;10.362;2022-07-04T04:49:19;20.40;63.50
18694;DHT22;9477;51.414;10.362;2022-07-04T04:51:22;20.40;63.50
18694;DHT22;9477;51.414;10.362;2022-07-04T04:53:25;20.40;63.40
18694;DHT22;9477;51.414;10.362;2022-07-04T04:55:29;20.40;63.40
18694;DHT22;9477;51.414;10.362;2022-07-04T04:57:32;20.40;63.30
18694;DHT22;9477;51.414;10.362;2022-07-04T04:59:35;20.40;63.10
18694;DHT22;9477;51.414;10.362;2022-07-04T05:01:38;20.40;63.10
18694;DHT22;9477;51.414;10.362;2022-07-04T05:03:43;20.50;63.10
18694;DHT22;9477;51.414;10.362;2022-07-04T05:05:48;20.50;63.10
18694;DHT22;9477;51.414;10.362;2022-07-04T05:07:51;20.50;63.30
18694;DHT22;9477;51.414;10.362;2022-07-04T05:09:54;20.50;63.20
18694;DHT22;9477;51.414;10.362;2022-07-04T05:12:02;20.70;63.20
18694;DHT22;9477;51.414;10.362;2022-07-04T05:14:06;20.80;63.00
18694;DHT22;9477;51.414;10.362;2022-07-04T05:16:08;20.90;62.80
18694;DHT22;9477;51.414;10.362;2022-07-04T05:18:11;21.00;62.50
18694;DHT22;9477;51.414;10.362;2022-07-04T05:20:14;21.10;62.60
18694;DHT22;9477;51.414;10.362;2022-07-04T05:22:17;21.30;62.60
18694;DHT22;9477;51.414;10.362;2022-07-04T05:24:20;21.30;62.90
18694;DHT22;9477;51.414;10.362;2022-07-04T05:26:23;21.40;62.80
18694;DHT22;9477;51.414;10.362;2022-07-04T05:28:27;21.50;62.60
18694;DHT22;9477;51.414;10.362;2022-07-04T05:30:30;21.60;62.40
18694;DHT22;9477;51.414;10.362;2022-07-04T05:32:33;21.70;62.20
18694;DHT22;9477;51.414;10.362;2022-07-04T05:34:36;21.80;62.10
18694;DHT22;9477;51.414;10.362;2022-07-04T05:36:38;21.90;62.10
18694;DHT22;9477;51.414;10.362;2022-07-04T05:38:41;22.00;61.90
18694;DHT22;9477;51.414;10.362;2022-07-04T05:40:44;22.10;61.80
18694;DHT22;9477;51.414;10.362;2022-07-04T05:42:49;22.20;61.90
18694;DHT22;9477;51.414;10.362;2022-07-04T05:44:53;22.30;61.70
18694;DHT22;9477;51.414;10.362;2022-07-04T05:46:56;22.30;62.40
18694;DHT22;9477;51.414;10.362;2022-07-04T05:48:59;22.30;62.20
18694;DHT22;9477;51.414;10.362;2022-07-04T05:51:02;22.40;61.90
18694;DHT22;9477;51.414;10.362;2022-07-04T05:53:05;22.30;60.90
18694;DHT22;9477;51.414;10.362;2022-07-04T05:55:09;22.20;61.10
18694;DHT22;9477;51.414;10.362;2022-07-04T05:57:12;22.30;61.50
18694;DHT22;9477;51.414;10.362;2022-07-04T05:59:15;22.20;61.10
18694;DHT22;9477;51.414;10.362;2022-07-04T06:01:19;22.20;61.10
18694;DHT22;9477;51.414;10.362;2022-07-04T06:03:22;22.20;61.40
18694;DHT22;9477;51.414;10.362;2022-07-04T06:05:25;22.20;61.40
18694;DHT22;9477;51.414;10.362;2022-07-04T06:07:28;22.20;61.70
18694;DHT22;9477;51.414;10.362;2022-07-04T06:09:31;22.30;61.80
18694;DHT22;9477;51.414;10.362;2022-07-04T06:11:34;22.40;61.60
18694;DHT22;9477;51.414;10.362;2022-07-04T06:13:37;22.40;61.00
18694;DHT22;9477;51.414;10.362;2022-07-04T06:15:40;22.20;60.60
18694;DHT22;9477;51.414;10.362;2022-07-04T06:17:44;22.30;60.70
18694;DHT22;9477;51.414;10.362;2022-07-04T06:19:47;22.40;60.90
18694;DHT22;9477;51.414;10.362;2022-07-04T06:21:50;22.60;61.00
18694;DHT22;9477;51.414;10.362;2022-07-04T06:23:53;22.40;59.90
18694;DHT22;9477;51.414;10.362;2022-07-04T06:25:56;22.70;60.10
18694;DHT22;9477;51.414;10.362;2022-07-04T06:28:00;22.60;59.50
18694;DHT22;9477;51.414;10.362;2022-07-04T06:30:03;22.50;59.30
18694;DHT22;9477;51.414;10.362;2022-07-04T06:32:07;22.40;59.60
18694;DHT22;9477;51.414;10.362;2022-07-04T06:34:14;22.40;59.70
18694;DHT22;9477;51.414;10.362;2022-07-04T06:36:35;22.60;60.20
18694;DHT22;9477;51.414;10.362;2022-07-04T06:38:37;22.40;59.40
18694;DHT22;9477;51.414;10.362;2022-07-04T06:40:40;22.70;59.40
18694;DHT22;9477;51.414;10.362;2022-07-04T06:42:43;22.60;58.60
18694;DHT22;9477;51.414;10.362;2022-07-04T06:44:46;22.70;58.70
18694;DHT22;9477;51.414;10.362;2022-07-04T06:46:49;22.50;58.90
18694;DHT22;9477;51.414;10.362;2022-07-04T06:48:52;22.50;59.10
18694;DHT22;9477;51.414;10.362;2022-07-04T06:50:59;22.50;58.90
18694;DHT22;9477;51.414;10.362;2022-07-04T06:53:04;22.60;59.20
18694;DHT22;9477;51.414;10.362;2022-07-04T06:55:08;22.70;59.10
18694;DHT22;9477;51.414;10.362;2022-07-04T06:57:11;22.70;58.50
18694;DHT22;9477;51.414;10.362;2022-07-04T06:59:33;22.80;59.20
18694;DHT22;9477;51.414;10.362;2022-07-04T07:01:36;22.80;58.60
18694;DHT22;9477;51.414;10.362;2022-07-04T07:03:39;22.60;58.80
18694;DHT22;9477;51.414;10.362;2022-07-04T07:05:42;22.50;59.30
18694;DHT22;9477;51.414;10.362;2022-07-04T07:08:02;22.70;59.90
18694;DHT22;9477;51.414;10.362;2022-07-04T07:10:09;22.50;58.60
18694;DHT22;9477;51.414;10.362;2022-07-04T07:12:12;22.80;58.50
18694;DHT22;9477;51.414;10.362;2022-07-04T07:14:15;22.70;57.50
18694;DHT22;9477;51.414;10.362;2022-07-04T07:16:18;23.00;58.60
18694;DHT22;9477;51.414;10.362;2022-07-04T07:18:21;23.10;57.80
18694;DHT22;9477;51.414;10.362;2022-07-04T07:20:24;23.00;57.60
18694;DHT22;9477;51.414;10.362;2022-07-04T07:22:27;23.30;58.00
18694;DHT22;9477;51.414;10.362;2022-07-04T07:24:31;23.10;56.00
18694;DHT22;9477;51.414;10.362;2022-07-04T07:26:34;23.10;56.00
18694;DHT22;9477;51.414;10.362;2022-07-04T07:28:37;23.30;55.90
18694;DHT22;9477;51.414;10.362;2022-07-04T07:30:40;23.20;56.10
18694;DHT22;9477;51.414;10.362;2022-07-04T07:32:42;23.10;56.10
18694;DHT22;9477;51.414;10.362;2022-07-04T07:34:45;23.20;56.30
18694;DHT22;9477;51.414;10.362;2022-07-04T07:36:48;23.30;56.80
18694;DHT22;9477;51.414;10.362;2022-07-04T07:38:51;23.50;56.30
18694;DHT22;9477;51.414;10.362;2022-07-04T07:40:59;23.50;55.60
18694;DHT22;9477;51.414;10.362;2022-07-04T07:43:01;23.50;55.90
18694;DHT22;9477;51.414;10.362;2022-07-04T07:45:05;23.60;55.70
18694;DHT22;9477;51.414;10.362;2022-07-04T07:47:09;23.60;55.00
18694;DHT22;9477;51.414;10.362;2022-07-04T07:49:14;23.70;54.90
18694;DHT22;9477;51.414;10.362;2022-07-04T07:51:17;23.80;55.30
18694;DHT22;9477;51.414;10.362;2022-07-04T07:53:20;24.00;55.40
18694;DHT22;9477;51.414;10.362;2022-07-04T07:55:23;24.20;55.10
18694;DHT22;9477;51.414;10.362;2022-07-04T07:57:28;24.50;55.10
18694;DHT22;9477;51.414;10.362;2022-07-04T07:59:31;24.70;54.30
18694;DHT22;9477;51.414;10.362;2022-07-04T08:01:34;25.00;54.50
18694;DHT22;9477;51.414;10.362;2022-07-04T08:03:39;25.10;53.30
18694;DHT22;9477;51.414;10.362;2022-07-04T08:05:59;25.20;53.40
18694;DHT22;9477;51.414;10.362;2022-07-04T08:08:02;24.80;52.50
18694;DHT22;9477;51.414;10.362;2022-07-04T08:10:06;24.70;53.00
18694;DHT22;9477;51.414;10.362;2022-07-04T08:12:09;24.60;53.00
18694;DHT22;9477;51.414;10.362;2022-07-04T08:14:13;24.60;53.20
18694;DHT22;9477;51.414;10.362;2022-07-04T08:16:16;24.70;54.00
18694;DHT22;9477;51.414;10.362;2022-07-04T08:18:35;25.10;54.00
18694;DHT22;9477;51.414;10.362;2022-07-04T08:20:38;25.40;52.80
18694;DHT22;9477;51.414;10.362;2022-07-04T08:23:00;25.20;51.60
18694;DHT22;9477;51.414;10.362;2022-07-04T08:25:04;25.30;52.00
18694;DHT22;9477;51.414;10.362;2022-07-04T08:27:07;25.10;52.20
18694;DHT22;9477;51.414;10.362;2022-07-04T08:29:10;25.00;52.50
18694;DHT22;9477;51.414;10.362;2022-07-04T08:31:14;24.80;52.90
18694;DHT22;9477;51.414;10.362;2022-07-04T08:33:37;24.60;53.20
18694;DHT22;9477;51.414;10.362;2022-07-04T08:35:40;24.60;53.30
18694;DHT22;9477;51.414;10.362;2022-07-04T08:37:42;24.80;53.20
18694;DHT22;9477;51.414;10.362;2022-07-04T08:39:45;25.10;53.30
18694;DHT22;9477;51.414;10.362;2022-07-04T08:41:50;25.40;52.60
18694;DHT22;9477;51.414;10.362;2022-07-04T08:43:55;25.20;51.50
18694;DHT22;9477;51.414;10.362;2022-07-04T08:45:59;25.50;52.30
18694;DHT22;9477;51.414;10.362;2022-07-04T08:48:25;25.70;51.40
18694;DHT22;9477;51.414;10.362;2022-07-04T08:50:31;25.90;51.60
18694;DHT22;9477;51.414;10.362;2022-07-04T08:52:36;25.90;51.30
18694;DHT22;9477;51.414;10.362;2022-07-04T08:54:39;25.90;50.80
18694;DHT22;9477;51.414;10.362;2022-07-04T08:57:00;25.50;50.10
18694;DHT22;9477;51.414;10.362;2022-07-04T08:59:21;25.10;50.30
18694;DHT22;9477;51.414;10.362;2022-07-04T09:01:25;25.10;51.00
18694;DHT22;9477;51.414;10.362;2022-07-04T09:03:31;24.50;49.90
18694;DHT22;9477;51.414;10.362;2022-07-04T09:05:35;24.80;51.20
18694;DHT22;9477;51.414;10.362;2022-07-04T09:07:38;25.10;51.40
18694;DHT22;9477;51.414;10.362;2022-07-04T09:09:41;25.40;51.70
18694;DHT22;9477;51.414;10.362;2022-07-04T09:11:52;25.70;51.50
18694;DHT22;9477;51.414;10.362;2022-07-04T09:13:56;25.90;50.20
18694;DHT22;9477;51.414;10.362;2022-07-04T09:16:01;26.20;50.00
18694;DHT22;9477;51.414;10.362;2022-07-04T09:18:04;26.30;49.10
18694;DHT22;9477;51.414;10.362;2022-07-04T09:20:14;26.00;48.60
18694;DHT22;9477;51.414;10.362;2022-07-04T09:22:17;25.70;47.00
18694;DHT22;9477;51.414;10.362;2022-07-04T09:24:43;25.40;48.00
18694;DHT22;9477;51.414;10.362;2022-07-04T09:26:46;25.40;48.40
18694;DHT22;9477;51.414;10.362;2022-07-04T09:28:52;25.60;48.10
18694;DHT22;9477;51.414;10.362;2022-07-04T09:30:55;25.40;46.80
18694;DHT22;9477;51.414;10.362;2022-07-04T09:32:58;25.70;47.00
18694;DHT22;9477;51.414;10.362;2022-07-04T09:35:04;25.70;47.40
18694;DHT22;9477;51.414;10.362;2022-07-04T09:37:08;25.80;47.60
18694;DHT22;9477;51.414;10.362;2022-07-04T09:39:12;26.00;48.00
18694;DHT22;9477;51.414;10.362;2022-07-04T09:41:16;26.20;48.20
18694;DHT22;9477;51.414;10.362;2022-07-04T09:43:31;26.30;47.60
18694;DHT22;9477;51.414;10.362;2022-07-04T09:45:34;26.20;47.70
18694;DHT22;9477;51.414;10.362;2022-07-04T09:47:38;25.40;46.60
18694;DHT22;9477;51.414;10.362;2022-07-04T09:49:57;25.80;48.30
18694;DHT22;9477;51.414;10.362;2022-07-04T09:52:01;26.00;47.10
18694;DHT22;9477;51.414;10.362;2022-07-04T09:54:17;26.00;46.80
18694;DHT22;9477;51.414;10.362;2022-07-04T09:56:39;26.10;46.50
18694;DHT22;9477;51.414;10.362;2022-07-04T09:58:56;26.20;46.90
18694;DHT22;9477;51.414;10.362;2022-07-04T10:00:59;26.30;46.60
18694;DHT22;9477;51.414;10.362;2022-07-04T10:03:16;26.30;44.70
18694;DHT22;9477;51.414;10.362;2022-07-04T10:05:22;26.20;44.40
18694;DHT22;9477;51.414;10.362;2022-07-04T10:07:36;26.20;44.50
18694;DHT22;9477;51.414;10.362;2022-07-04T10:09:40;26.50;46.50
18694;DHT22;9477;51.414;10.362;2022-07-04T10:11:44;26.70;46.30
18694;DHT22;9477;51.414;10.362;2022-07-04T10:13:47;26.90;44.80
18694;DHT22;9477;51.414;10.362;2022-07-04T10:15:51;26.90;43.80
18694;DHT22;9477;51.414;10.362;2022-07-04T10:17:54;26.50;43.80
18694;DHT22;9477;51.414;10.362;2022-07-04T10:19:57;26.30;43.70
18694;DHT22;9477;51.414;10.362;2022-07-04T10:22:00;26.40;44.30
18694;DHT22;9477;51.414;10.362;2022-07-04T10:24:04;26.50;45.10
18694;DHT22;9477;51.414;10.362;2022-07-04T10:26:10;26.50;44.30
18694;DHT22;9477;51.414;10.362;2022-07-04T10:28:13;26.60;44.50
18694;DHT22;9477;51.414;10.362;2022-07-04T10:30:20;26.70;45.20
18694;DHT22;9477;51.414;10.362;2022-07-04T10:32:25;26.70;45.80
18694;DHT22;9477;51.414;10.362;2022-07-04T10:34:29;26.50;44.40
18694;DHT22;9477;51.414;10.362;2022-07-04T10:36:31;26.70;44.10
18694;DHT22;9477;51.414;10.362;2022-07-04T10:38:47;26.70;44.50
18694;DHT22;9477;51.414;10.362;2022-07-04T10:40:51;26.80;44.30
18694;DHT22;9477;51.414;10.362;2022-07-04T10:42:56;26.70;43.60
18694;DHT22;9477;51.414;10.362;2022-07-04T10:45:00;26.70;43.80
18694;DHT22;9477;51.414;10.362;2022-07-04T10:47:04;26.90;44.10
18694;DHT22;9477;51.414;10.362;2022-07-04T10:49:17;26.80;43.10
18694;DHT22;9477;51.414;10.362;2022-07-04T10:51:38;27.00;43.50
18694;DHT22;9477;51.414;10.362;2022-07-04T10:53:57;27.10;44.00
18694;DHT22;9477;51.414;10.362;2022-07-04T10:56:33;27.00;43.40
18694;DHT22;9477;51.414;10.362;2022-07-04T10:58:42;26.90;42.30
18694;DHT22;9477;51.414;10.362;2022-07-04T11:01:12;26.80;43.00
18694;DHT22;9477;51.414;10.362;2022-07-04T11:03:17;26.50;42.70
18694;DHT22;9477;51.414;10.362;2022-07-04T11:05:30;26.50;43.10
18694;DHT22;9477;51.414;10.362;2022-07-04T11:07:57;26.50;43.30
18694;DHT22;9477;51.414;10.362;2022-07-04T11:10:19;26.20;42.80
18694;DHT22;9477;51.414;10.362;2022-07-04T11:12:27;26.70;44.00
18694;DHT22;9477;51.414;10.362;2022-07-04T11:14:42;26.70;43.60
18694;DHT22;9477;51.414;10.362;2022-07-04T11:16:51;26.30;43.50
18694;DHT22;9477;51.414;10.362;2022-07-04T11:18:55;26.00;43.90
18694;DHT22;9477;51.414;10.362;2022-07-04T11:20:58;25.90;44.30
18694;DHT22;9477;51.414;10.362;2022-07-04T11:23:04;26.20;45.10
18694;DHT22;9477;51.414;10.362;2022-07-04T11:25:10;26.30;44.10
18694;DHT22;9477;51.414;10.362;2022-07-04T11:27:14;26.50;43.30
18694;DHT22;9477;51.414;10.362;2022-07-04T11:29:17;26.70;43.90
18694;DHT22;9477;51.414;10.362;2022-07-04T11:31:34;26.80;44.40
18694;DHT22;9477;51.414;10.362;2022-07-04T11:33:38;27.00;43.20
18694;DHT22;9477;51.414;10.362;2022-07-04T11:35:43;26.80;42.70
18694;DHT22;9477;51.414;10.362;2022-07-04T11:37:56;26.90;42.30
18694;DHT22;9477;51.414;10.362;2022-07-04T11:39:59;26.70;42.50
18694;DHT22;9477;51.414;10.362;2022-07-04T11:42:16;26.80;42.30
18694;DHT22;9477;51.414;10.362;2022-07-04T11:44:38;26.70;41.90
18694;DHT22;9477;51.414;10.362;2022-07-04T11:47:09;26.80;41.30
18694;DHT22;9477;51.414;10.362;2022-07-04T11:49:12;26.80;41.90
18694;DHT22;9477;51.414;10.362;2022-07-04T11:51:18;26.60;41.20
18694;DHT22;9477;51.414;10.362;2022-07-04T11:53:21;26.70;41.50
18694;DHT22;9477;51.414;10.362;2022-07-04T11:55:24;26.80;42.00
18694;DHT22;9477;51.414;10.362;2022-07-04T11:57:28;26.70;41.50
18694;DHT22;9477;51.414;10.362;2022-07-04T11:59:31;26.80;41.70
18694;DHT22;9477;51.414;10.362;2022-07-04T12:01:34;26.80;41.10
18694;DHT22;9477;51.414;10.362;2022-07-04T12:03:38;26.90;41.50
18694;DHT22;9477;51.414;10.362;2022-07-04T12:05:41;27.00;41.90
18694;DHT22;9477;51.414;10.362;2022-07-04T12:07:47;27.30;42.20
18694;DHT22;9477;51.414;10.362;2022-07-04T12:10:12;27.60;42.30
18694;DHT22;9477;51.414;10.362;2022-07-04T12:12:16;27.40;41.60
18694;DHT22;9477;51.414;10.362;2022-07-04T12:14:19;27.40;41.70
18694;DHT22;9477;51.414;10.362;2022-07-04T12:16:22;27.60;41.60
18694;DHT22;9477;51.414;10.362;2022-07-04T12:18:27;27.90;42.20
18694;DHT22;9477;51.414;10.362;2022-07-04T12:20:32;28.10;42.30
18694;DHT22;9477;51.414;10.362;2022-07-04T12:22:37;27.90;40.50
18694;DHT22;9477;51.414;10.362;2022-07-04T12:24:41;27.90;40.60
18694;DHT22;9477;51.414;10.362;2022-07-04T12:26:45;27.60;40.90
18694;DHT22;9477;51.414;10.362;2022-07-04T12:28:49;27.60;40.90
18694;DHT22;9477;51.414;10.362;2022-07-04T12:30:54;27.80;41.60
18694;DHT22;9477;51.414;10.362;2022-07-04T12:32:58;27.30;39.70
18694;DHT22;9477;51.414;10.362;2022-07-04T12:35:02;27.20;40.90
18694;DHT22;9477;51.414;10.362;2022-07-04T12:37:14;27.60;41.50
18694;DHT22;9477;51.414;10.362;2022-07-04T12:39:30;27.70;41.30
18694;DHT22;9477;51.414;10.362;2022-07-04T12:41:33;27.40;39.80
18694;DHT22;9477;51.414;10.362;2022-07-04T12:43:46;27.50;39.70
18694;DHT22;9477;51.414;10.362;2022-07-04T12:45:51;27.50;39.80
18694;DHT22;9477;51.414;10.362;2022-07-04T12:47:55;27.40;39.30
18694;DHT22;9477;51.414;10.362;2022-07-04T12:49:58;27.50;40.00
18694;DHT22;9477;51.414;10.362;2022-07-04T12:52:10;27.50;39.70
18694;DHT22;9477;51.414;10.362;2022-07-04T12:54:14;27.70;41.20
18694;DHT22;9477;51.414;10.362;2022-07-04T12:56:28;27.70;40.50
18694;DHT22;9477;51.414;10.362;2022-07-04T12:58:32;27.80;40.60
18694;DHT22;9477;51.414;10.362;2022-07-04T13:00:35;27.90;40.60
18694;DHT22;9477;51.414;10.362;2022-07-04T13:02:39;27.90;40.50
18694;DHT22;9477;51.414;10.362;2022-07-04T13:04:42;27.90;39.30
18694;DHT22;9477;51.414;10.362;2022-07-04T13:06:44;27.80;39.90
18694;DHT22;9477;51.414;10.362;2022-07-04T13:08:48;28.00;40.50
18694;DHT22;9477;51.414;10.362;2022-07-04T13:10:53;28.00;40.00